Time;durP1;ratioP1;P1;durP2;ratioP2;P2;SDS_P1;SDS_P2;PMS_P1;PMS_P2;Temp;Humidity;BMP_temperature;BMP_pressure;BME280_temperature;BME280_humidity;BME280_pressure;Samples;Min_cycle;Max_cycle;Signal;HPM_P1;HPM_P2
2022/09/10 00:01:47;;;;;;;0.20;0.20;;;;;;;14.67;89.42;95419.38;4401177;32;20259;-59
2022/09/10 00:04:19;;;;;;;0.00;0.00;;;;;;;14.66;90.09;95421.25;4392557;32;20233;-59
2022/09/10 00:06:46;;;;;;;0.10;0.10;;;;;;;14.68;89.71;95424.41;4409278;32;20236;-59
2022/09/10 00:09:13;;;;;;;0.10;0.10;;;;;;;14.75;89.36;95415.91;4396280;32;20262;-59
2022/09/10 00:11:41;;;;;;;0.17;0.17;;;;;;;14.70;89.75;95416.06;4402458;32;20199;-59
2022/09/10 00:14:14;;;;;;;0.00;0.00;;;;;;;14.74;89.31;95411.69;4409571;32;20241;-59
2022/09/10 00:16:41;;;;;;;0.00;0.00;;;;;;;14.73;89.00;95421.56;4368011;32;20184;-59
2022/09/10 00:19:07;;;;;;;0.00;0.00;;;;;;;14.65;89.14;95417.00;4365979;32;20191;-59
2022/09/10 00:21:34;;;;;;;0.60;0.40;;;;;;;14.61;89.24;95421.41;4402139;32;20228;-59
2022/09/10 00:24:04;;;;;;;0.00;0.00;;;;;;;14.49;90.30;95413.25;4388926;32;20214;-59
2022/09/10 00:26:49;;;;;;;0.40;0.20;;;;;;;14.54;90.46;95421.13;4380411;32;20199;-59
2022/09/10 00:29:18;;;;;;;0.03;0.03;;;;;;;14.44;89.86;95416.09;4391978;32;20218;-60
2022/09/10 00:31:44;;;;;;;0.00;0.00;;;;;;;14.46;90.14;95423.78;4403628;32;20265;-59
2022/09/10 00:34:13;;;;;;;4.17;0.67;;;;;;;14.36;90.82;95420.28;4399306;32;20243;-59
2022/09/10 00:36:42;;;;;;;0.00;0.00;;;;;;;14.36;90.98;95417.63;4404605;32;20219;-59
2022/09/10 00:39:25;;;;;;;0.37;0.30;;;;;;;14.31;90.17;95428.47;4401697;32;20259;-60
2022/09/10 00:41:53;;;;;;;0.00;0.00;;;;;;;14.17;90.72;95414.47;4383047;32;20196;-59
2022/09/10 00:44:54;;;;;;;0.10;0.10;;;;;;;14.32;90.24;95421.25;4393272;32;20208;-59
2022/09/10 00:47:37;;;;;;;0.10;0.10;;;;;;;14.43;90.01;95419.84;4405766;32;20187;-59
2022/09/10 00:50:26;;;;;;;0.00;0.00;;;;;;;14.09;90.96;95415.28;4388091;32;20188;-59
2022/09/10 00:52:57;;;;;;;0.10;0.10;;;;;;;14.17;91.29;95417.16;4392458;32;20187;-59
2022/09/10 00:55:23;;;;;;;0.03;0.03;;;;;;;13.95;91.49;95411.94;4381055;32;20289;-59
2022/09/10 00:57:55;;;;;;;0.20;0.20;;;;;;;14.01;91.81;95410.72;4393984;32;20263;-59
2022/09/10 01:00:22;;;;;;;0.33;0.33;;;;;;;14.13;91.32;95407.44;4402413;32;20359;-59
2022/09/10 01:02:48;;;;;;;0.23;0.23;;;;;;;14.06;91.17;95395.34;4410476;32;20263;-59
2022/09/10 01:05:16;;;;;;;0.37;0.37;;;;;;;14.21;91.03;95391.41;4361764;32;20214;-59
2022/09/10 01:07:43;;;;;;;0.20;0.20;;;;;;;14.17;91.16;95395.81;4383027;32;20223;-59
2022/09/10 01:10:25;;;;;;;0.00;0.00;;;;;;;14.43;89.93;95403.84;4386411;32;20188;-59
2022/09/10 01:13:26;;;;;;;0.07;0.07;;;;;;;14.41;90.37;95390.81;4396344;32;20196;-59
2022/09/10 01:15:54;;;;;;;0.37;0.27;;;;;;;14.38;90.33;95396.75;4346097;32;20235;-59
2022/09/10 01:19:18;;;;;;;0.10;0.10;;;;;;;14.29;90.15;95393.31;4393409;32;20293;-59
2022/09/10 01:22:23;;;;;;;0.00;0.00;;;;;;;14.46;89.87;95386.41;4395617;32;20212;-59
2022/09/10 01:25:27;;;;;;;0.17;0.17;;;;;;;14.59;88.86;95394.25;4388024;32;20249;-59
2022/09/10 01:27:55;;;;;;;0.00;0.00;;;;;;;14.32;89.87;95395.34;4391532;32;20224;-60
2022/09/10 01:30:39;;;;;;;1.03;0.33;;;;;;;14.35;90.36;95393.91;4407976;32;20203;-59
2022/09/10 01:33:29;;;;;;;0.03;0.03;;;;;;;14.26;90.40;95391.25;4411621;32;20200;-63
2022/09/10 01:36:01;;;;;;;0.20;0.20;;;;;;;14.35;90.04;95386.69;4375174;32;20237;-60
2022/09/10 01:38:31;;;;;;;1.40;0.47;;;;;;;14.23;90.98;95383.09;4385511;32;20199;-59
2022/09/10 01:41:02;;;;;;;0.20;0.20;;;;;;;14.47;90.10;95388.78;4389791;32;20200;-59
2022/09/10 01:43:27;;;;;;;0.10;0.10;;;;;;;14.34;90.98;95384.38;4391963;32;20346;-59
2022/09/10 01:46:30;;;;;;;0.00;0.00;;;;;;;14.45;90.71;95374.94;4401476;32;20192;-59
2022/09/10 01:49:28;;;;;;;0.10;0.10;;;;;;;14.46;90.92;95373.06;4371848;32;20192;-59
2022/09/10 01:52:48;;;;;;;0.00;0.00;;;;;;;14.42;90.39;95376.38;4375983;32;20282;-59
2022/09/10 01:55:52;;;;;;;0.20;0.20;;;;;;;14.55;90.25;95369.28;4356436;32;20214;-59
2022/09/10 01:58:41;;;;;;;0.00;0.00;;;;;;;14.52;90.14;95367.25;4399123;32;20184;-59
2022/09/10 02:01:43;;;;;;;0.37;0.37;;;;;;;14.44;90.42;95365.38;4400111;32;20215;-60
2022/09/10 02:04:14;;;;;;;0.00;0.00;;;;;;;14.59;90.19;95374.75;4398759;32;20233;-59
2022/09/10 02:06:48;;;;;;;0.10;0.10;;;;;;;14.55;90.13;95368.50;4391928;32;20234;-59
2022/09/10 02:09:16;;;;;;;0.17;0.17;;;;;;;14.43;90.45;95366.47;4386192;32;20204;-59
2022/09/10 02:11:51;;;;;;;0.03;0.03;;;;;;;14.44;90.32;95362.72;4390839;32;20199;-59
2022/09/10 02:14:20;;;;;;;0.30;0.30;;;;;;;14.50;90.12;95358.00;4376246;32;20179;-59
2022/09/10 02:16:59;;;;;;;4.90;0.30;;;;;;;14.47;90.22;95366.63;4405936;32;20180;-59
2022/09/10 02:19:26;;;;;;;3.63;0.47;;;;;;;14.52;89.89;95364.59;4387833;32;20248;-59
2022/09/10 02:21:57;;;;;;;0.13;0.13;;;;;;;14.52;89.86;95363.81;4392188;32;20184;-59
2022/09/10 02:24:24;;;;;;;0.10;0.10;;;;;;;14.55;89.46;95357.84;4404113;32;20184;-59
2022/09/10 02:26:50;;;;;;;0.10;0.10;;;;;;;14.55;89.26;95352.50;4401419;32;20184;-59
2022/09/10 02:29:18;;;;;;;0.13;0.10;;;;;;;14.45;89.44;95348.25;4407042;32;20243;-59
2022/09/10 02:31:46;;;;;;;0.00;0.00;;;;;;;14.30;89.93;95352.19;4400898;32;20302;-59
2022/09/10 02:34:14;;;;;;;0.40;0.33;;;;;;;14.41;89.46;95352.66;4390275;32;20260;-59
2022/09/10 02:36:42;;;;;;;0.10;0.10;;;;;;;14.36;89.25;95353.56;4400370;32;20227;-59
2022/09/10 02:39:09;;;;;;;0.00;0.00;;;;;;;14.26;90.08;95353.91;4390426;32;20229;-59
2022/09/10 02:41:39;;;;;;;0.20;0.20;;;;;;;14.15;90.90;95363.31;4400475;32;20210;-67
2022/09/10 02:44:08;;;;;;;0.10;0.10;;;;;;;14.12;90.59;95361.28;4398434;32;20181;-60
2022/09/10 02:46:35;;;;;;;0.47;0.43;;;;;;;14.07;91.10;95358.78;4413489;32;20263;-59
2022/09/10 02:49:02;;;;;;;0.17;0.17;;;;;;;14.09;91.20;95353.91;4357802;32;20234;-59
2022/09/10 02:51:28;;;;;;;0.10;0.10;;;;;;;14.12;90.97;95361.28;4401731;32;20202;-60
2022/09/10 02:53:54;;;;;;;0.17;0.17;;;;;;;14.15;90.70;95359.84;4361731;32;20207;-59
2022/09/10 02:56:22;;;;;;;0.33;0.33;;;;;;;14.16;90.59;95362.22;4396118;32;20180;-59
2022/09/10 02:58:50;;;;;;;1.90;0.30;;;;;;;14.32;89.92;95359.87;4396832;32;20194;-59
2022/09/10 03:01:20;;;;;;;0.00;0.00;;;;;;;14.18;90.15;95354.69;4379617;32;20227;-59
2022/09/10 03:03:55;;;;;;;0.00;0.00;;;;;;;14.21;89.63;95353.28;4403723;32;20222;-59
2022/09/10 03:06:25;;;;;;;0.00;0.00;;;;;;;14.21;89.27;95359.41;4409476;32;20211;-59
2022/09/10 03:08:56;;;;;;;0.00;0.00;;;;;;;14.27;89.29;95360.03;4398397;32;20287;-59
2022/09/10 03:11:24;;;;;;;0.17;0.17;;;;;;;14.15;89.74;95349.19;4385131;32;20199;-59
2022/09/10 03:13:52;;;;;;;0.00;0.00;;;;;;;14.16;89.34;95351.53;4387153;32;20262;-59
2022/09/10 03:16:23;;;;;;;0.00;0.00;;;;;;;14.28;89.00;95343.69;4399729;32;20244;-59
2022/09/10 03:18:48;;;;;;;0.00;0.00;;;;;;;14.24;89.25;95352.66;4405755;32;20207;-59
2022/09/10 03:21:19;;;;;;;0.10;0.10;;;;;;;14.25;88.62;95347.00;4395286;32;20219;-59
2022/09/10 03:23:48;;;;;;;0.20;0.20;;;;;;;14.01;89.65;95344.81;4378410;32;20207;-60
2022/09/10 03:26:18;;;;;;;0.10;0.10;;;;;;;14.17;89.31;95347.78;4403406;32;20180;-59
2022/09/10 03:28:46;;;;;;;0.00;0.00;;;;;;;14.10;89.69;95347.47;4402568;32;20180;-59
2022/09/10 03:31:13;;;;;;;0.00;0.00;;;;;;;14.21;88.80;95345.28;4410078;32;20196;-59
2022/09/10 03:33:40;;;;;;;0.30;0.30;;;;;;;14.25;88.33;95341.66;4400289;32;20206;-59
2022/09/10 03:36:21;;;;;;;0.20;0.20;;;;;;;14.19;88.43;95345.59;4399816;32;20188;-59
2022/09/10 03:38:52;;;;;;;0.00;0.00;;;;;;;14.18;88.92;95343.22;4380229;32;20192;-59
2022/09/10 03:41:19;;;;;;;0.03;0.03;;;;;;;14.12;89.17;95344.50;4401449;32;20184;-58
2022/09/10 03:43:48;;;;;;;0.10;0.10;;;;;;;14.10;88.77;95345.59;4357368;32;20199;-59
2022/09/10 03:46:14;;;;;;;0.37;0.37;;;;;;;14.14;88.75;95347.62;4380996;32;20171;-59
2022/09/10 03:48:42;;;;;;;0.30;0.30;;;;;;;14.19;89.01;95350.91;4392808;32;20184;-59
2022/09/10 03:51:09;;;;;;;0.10;0.10;;;;;;;14.10;89.30;95347.47;4380044;32;20187;-60
2022/09/10 03:53:37;;;;;;;0.20;0.20;;;;;;;14.11;89.31;95349.06;4379747;32;20197;-60
2022/09/10 03:56:07;;;;;;;0.10;0.10;;;;;;;14.11;89.43;95349.06;4394372;32;20222;-59
2022/09/10 03:58:39;;;;;;;0.20;0.20;;;;;;;14.04;88.93;95346.84;4341346;32;20189;-60
2022/09/10 04:01:07;;;;;;;0.57;0.20;;;;;;;14.08;88.91;95347.00;4384571;32;20188;-59
2022/09/10 04:03:32;;;;;;;0.00;0.00;;;;;;;14.18;88.90;95344.00;4392591;32;20179;-59
2022/09/10 04:05:58;;;;;;;0.00;0.00;;;;;;;14.22;88.57;95339.62;4416333;32;20358;-59
2022/09/10 04:08:25;;;;;;;0.00;0.00;;;;;;;14.35;88.27;95346.66;4392884;32;20211;-59
2022/09/10 04:10:53;;;;;;;0.00;0.00;;;;;;;14.26;88.20;95345.13;4397943;32;20211;-59
2022/09/10 04:13:21;;;;;;;0.10;0.10;;;;;;;14.23;88.90;95341.19;4386244;32;20188;-59
2022/09/10 04:15:47;;;;;;;0.40;0.10;;;;;;;14.38;87.68;95343.34;4391234;32;20223;-59
2022/09/10 04:18:14;;;;;;;0.10;0.10;;;;;;;14.38;88.16;95340.69;4388353;32;20229;-60
2022/09/10 04:20:42;;;;;;;1.10;0.30;;;;;;;14.48;88.03;95346.84;4402275;32;20184;-59
2022/09/10 04:23:09;;;;;;;0.00;0.00;;;;;;;14.39;87.86;95344.94;4398576;32;20180;-59
2022/09/10 04:25:37;;;;;;;0.00;0.00;;;;;;;14.50;87.84;95345.44;4412572;32;20183;-59
2022/09/10 04:28:15;;;;;;;0.00;0.00;;;;;;;14.54;87.23;95342.91;4404607;32;20192;-59
2022/09/10 04:30:43;;;;;;;0.10;0.10;;;;;;;14.52;87.57;95350.47;4391154;32;20252;-59
2022/09/10 04:33:14;;;;;;;0.00;0.00;;;;;;;14.56;87.05;95343.34;4389227;32;20177;-59
2022/09/10 04:35:42;;;;;;;0.00;0.00;;;;;;;14.53;86.84;95349.34;4411250;32;20204;-59
2022/09/10 04:38:07;;;;;;;0.00;0.00;;;;;;;14.49;87.14;95343.84;4391436;32;20230;-59
2022/09/10 04:40:34;;;;;;;0.10;0.10;;;;;;;14.60;86.95;95344.28;4367618;32;20180;-59
2022/09/10 04:43:00;;;;;;;0.00;0.00;;;;;;;14.60;87.09;95350.41;4396097;32;20180;-59
2022/09/10 04:45:29;;;;;;;0.00;0.00;;;;;;;14.50;87.48;95349.97;4383474;32;20183;-59
2022/09/10 04:47:58;;;;;;;0.20;0.20;;;;;;;14.62;87.35;95344.75;4403163;32;20289;-59
2022/09/10 04:50:25;;;;;;;0.10;0.10;;;;;;;14.52;87.03;95347.78;4394950;32;20192;-59
2022/09/10 04:52:51;;;;;;;0.10;0.10;;;;;;;14.50;86.73;95345.44;4385648;32;20184;-59
2022/09/10 04:55:18;;;;;;;0.40;0.40;;;;;;;14.64;86.76;95351.34;4377172;32;20310;-59
2022/09/10 04:57:46;;;;;;;0.20;0.20;;;;;;;14.68;87.26;95359.53;4396523;32;20192;-58
2022/09/10 05:00:12;;;;;;;0.00;0.00;;;;;;;14.75;87.14;95352.59;4426174;32;20264;-59
2022/09/10 05:02:40;;;;;;;0.10;0.10;;;;;;;14.84;86.11;95349.88;4396347;32;20188;-59
2022/09/10 05:05:06;;;;;;;0.10;0.10;;;;;;;14.87;86.92;95351.94;4384237;32;20200;-61
2022/09/10 05:07:32;;;;;;;0.50;0.50;;;;;;;14.73;87.39;95354.03;4403209;32;20187;-60
2022/09/10 05:09:57;;;;;;;0.03;0.03;;;;;;;14.74;86.95;95355.59;4402889;32;20188;-59
2022/09/10 05:12:23;;;;;;;0.20;0.20;;;;;;;14.75;87.09;95349.16;4381986;32;20247;-59
2022/09/10 05:14:53;;;;;;;0.00;0.00;;;;;;;14.72;87.39;95353.22;4411112;32;20202;-60
2022/09/10 05:17:20;;;;;;;0.10;0.10;;;;;;;14.71;86.82;95358.87;4361053;32;20240;-61
2022/09/10 05:19:47;;;;;;;0.10;0.10;;;;;;;14.68;86.76;95352.31;4366362;32;20187;-61
2022/09/10 05:22:15;;;;;;;0.00;0.00;;;;;;;14.79;86.36;95358.06;4398186;32;20247;-62
2022/09/10 05:24:42;;;;;;;0.57;0.57;;;;;;;14.62;86.95;95361.56;4398287;32;20187;-62
2022/09/10 05:27:09;;;;;;;0.30;0.30;;;;;;;14.71;86.79;95364.22;4403016;32;20280;-60
2022/09/10 05:29:37;;;;;;;0.20;0.20;;;;;;;14.62;86.85;95358.13;4405954;32;20208;-59
2022/09/10 05:32:08;;;;;;;0.10;0.10;;;;;;;14.66;86.91;95367.84;4390703;32;20229;-59
2022/09/10 05:34:34;;;;;;;0.00;0.00;;;;;;;14.62;86.73;95364.25;4388336;32;20271;-59
2022/09/10 05:37:00;;;;;;;0.10;0.00;;;;;;;14.82;86.62;95365.44;4365104;32;20188;-59
2022/09/10 05:39:26;;;;;;;0.10;0.10;;;;;;;14.71;86.71;95374.91;4396634;32;20259;-59
2022/09/10 05:41:54;;;;;;;0.20;0.20;;;;;;;14.80;86.60;95373.00;4400167;32;20206;-59
2022/09/10 05:44:20;;;;;;;0.53;0.30;;;;;;;14.67;87.29;95377.44;4400772;32;20252;-59
2022/09/10 05:46:47;;;;;;;0.07;0.07;;;;;;;14.55;87.34;95373.84;4402998;32;20177;-59
2022/09/10 05:49:14;;;;;;;0.00;0.00;;;;;;;14.59;87.00;95375.56;4421638;32;20180;-59
2022/09/10 05:51:40;;;;;;;0.00;0.00;;;;;;;14.64;87.68;95380.72;4402652;32;20289;-60
2022/09/10 05:54:06;;;;;;;0.10;0.10;;;;;;;14.63;87.45;95381.03;4393573;32;20226;-59
2022/09/10 05:56:31;;;;;;;2.20;0.40;;;;;;;14.60;87.57;95381.69;4373557;32;20199;-59
2022/09/10 05:58:58;;;;;;;0.23;0.23;;;;;;;14.70;87.76;95382.13;4399835;32;20283;-59
2022/09/10 06:01:24;;;;;;;0.10;0.10;;;;;;;14.81;87.02;95387.91;4414021;32;20183;-59
2022/09/10 06:03:52;;;;;;;0.27;0.27;;;;;;;14.84;87.03;95386.50;4401369;32;20271;-59
2022/09/10 06:06:20;;;;;;;1.37;0.33;;;;;;;14.88;86.75;95390.91;4402267;32;20200;-59
2022/09/10 06:08:49;;;;;;;0.93;0.30;;;;;;;14.91;86.19;95392.94;4404293;32;20198;-60
2022/09/10 06:11:19;;;;;;;0.13;0.13;;;;;;;15.06;85.86;95392.41;4393619;32;20257;-59
2022/09/10 06:13:46;;;;;;;0.73;0.40;;;;;;;14.93;86.51;95396.06;4398080;32;20247;-59
2022/09/10 06:16:12;;;;;;;0.40;0.30;;;;;;;14.87;87.12;95412.59;4398103;32;20181;-59
2022/09/10 06:18:39;;;;;;;0.30;0.30;;;;;;;14.74;88.96;95414.34;4412913;32;20190;-59
2022/09/10 06:21:28;;;;;;;1.30;0.50;;;;;;;14.72;90.44;95419.22;4390578;32;20183;-60
2022/09/10 06:23:56;;;;;;;0.00;0.00;;;;;;;14.55;92.39;95429.91;4384035;32;20199;-59
2022/09/10 06:26:23;;;;;;;0.00;0.00;;;;;;;14.59;92.82;95431.62;4398987;32;20184;-59
2022/09/10 06:28:49;;;;;;;0.00;0.00;;;;;;;14.55;94.15;95440.59;4377001;32;20199;-59
2022/09/10 06:31:18;;;;;;;0.30;0.30;;;;;;;14.49;94.42;95445.31;4397733;32;20176;-59
2022/09/10 06:33:56;;;;;;;0.00;0.00;;;;;;;14.50;95.50;95443.41;4403334;32;20262;-59
2022/09/10 06:36:27;;;;;;;0.47;0.43;;;;;;;14.53;95.30;95448.13;4397756;32;20214;-59
2022/09/10 06:38:54;;;;;;;0.07;0.07;;;;;;;14.41;97.27;95449.53;4387227;32;20303;-59
2022/09/10 06:41:19;;;;;;;0.10;0.10;;;;;;;14.30;97.65;95450.13;4399137;32;20210;-59
2022/09/10 06:43:45;;;;;;;0.20;0.20;;;;;;;14.09;98.79;95452.63;4411301;32;20188;-59
2022/09/10 06:46:18;;;;;;;0.43;0.23;;;;;;;14.02;99.62;95452.28;4397272;32;20273;-59
2022/09/10 06:48:44;;;;;;;0.07;0.07;;;;;;;14.08;100.00;95456.38;4397113;32;20204;-59
2022/09/10 06:51:12;;;;;;;0.20;0.20;;;;;;;14.20;100.00;95453.88;4391445;32;20265;-59
2022/09/10 06:53:40;;;;;;;0.33;0.20;;;;;;;14.17;100.00;95459.06;4388426;32;20179;-59
2022/09/10 06:56:11;;;;;;;0.40;0.40;;;;;;;14.12;100.00;95454.69;4397203;32;20185;-60
2022/09/10 06:58:38;;;;;;;0.20;0.20;;;;;;;14.01;100.00;95448.06;4377301;32;20314;-59
2022/09/10 07:01:22;;;;;;;0.13;0.13;;;;;;;14.04;100.00;95444.75;4381889;32;20237;-60
2022/09/10 07:03:57;;;;;;;0.47;0.47;;;;;;;14.13;100.00;95448.25;4387517;32;20195;-59
2022/09/10 07:06:27;;;;;;;0.00;0.00;;;;;;;14.23;100.00;95452.47;4400077;32;20191;-59
2022/09/10 07:08:55;;;;;;;0.53;0.40;;;;;;;14.16;100.00;95434.25;4388555;32;20192;-59
2022/09/10 07:11:22;;;;;;;0.27;0.27;;;;;;;14.42;100.00;95443.09;4383405;32;20187;-60
2022/09/10 07:13:58;;;;;;;0.57;0.57;;;;;;;14.56;100.00;95444.81;4399141;32;20187;-59
2022/09/10 07:16:28;;;;;;;0.30;0.17;;;;;;;14.44;100.00;95438.22;4392880;32;20184;-60
2022/09/10 07:18:56;;;;;;;0.20;0.20;;;;;;;14.63;99.73;95435.22;4396368;32;20217;-59
2022/09/10 07:21:26;;;;;;;0.93;0.53;;;;;;;14.66;99.29;95447.16;4394844;32;20191;-59
2022/09/10 07:24:09;;;;;;;0.17;0.17;;;;;;;14.55;99.87;95446.69;4396606;32;20222;-59
2022/09/10 07:26:37;;;;;;;0.13;0.13;;;;;;;14.77;99.03;95446.53;4379258;32;20180;-59
2022/09/10 07:29:03;;;;;;;0.40;0.20;;;;;;;14.88;98.54;95455.00;4397739;32;20198;-59
2022/09/10 07:31:50;;;;;;;0.00;0.00;;;;;;;14.88;98.29;95457.69;4397061;32;20286;-59
2022/09/10 07:34:19;;;;;;;0.03;0.03;;;;;;;14.95;98.31;95451.84;4403493;32;20223;-59
2022/09/10 07:36:45;;;;;;;1.57;0.50;;;;;;;15.08;97.64;95449.00;4413041;32;20211;-59
2022/09/10 07:39:12;;;;;;;0.10;0.10;;;;;;;15.16;96.90;95449.28;4397705;32;20181;-59
2022/09/10 07:41:39;;;;;;;0.20;0.20;;;;;;;15.22;96.99;95453.34;4396374;32;20214;-59
2022/09/10 07:44:05;;;;;;;0.23;0.23;;;;;;;15.26;95.80;95456.97;4394995;32;20196;-59
2022/09/10 07:46:31;;;;;;;0.10;0.10;;;;;;;15.28;95.51;95460.09;4403480;32;20184;-60
2022/09/10 07:48:59;;;;;;;0.30;0.30;;;;;;;15.20;96.73;95453.66;4394115;32;20175;-59
2022/09/10 07:51:27;;;;;;;0.30;0.20;;;;;;;15.22;96.83;95448.78;4373762;32;20192;-59
2022/09/10 07:53:58;;;;;;;0.10;0.10;;;;;;;15.05;95.61;95454.19;4398404;32;20196;-60
2022/09/10 07:56:25;;;;;;;0.20;0.20;;;;;;;15.09;96.66;95450.56;4411526;32;20188;-59
2022/09/10 07:58:55;;;;;;;0.00;0.00;;;;;;;15.08;96.61;95449.00;4383872;32;20196;-59
2022/09/10 08:01:24;;;;;;;0.23;0.23;;;;;;;14.96;96.76;95454.22;4403452;32;20199;-59
2022/09/10 08:03:55;;;;;;;0.00;0.00;;;;;;;15.04;96.69;95465.97;4406665;32;20203;-60
2022/09/10 08:06:24;;;;;;;0.77;0.33;;;;;;;15.08;96.42;95462.34;4389040;32;20191;-59
2022/09/10 08:08:51;;;;;;;4.83;4.43;;;;;;;15.16;96.30;95465.34;4405992;32;20244;-59
2022/09/10 08:11:20;;;;;;;1.20;0.57;;;;;;;15.37;95.20;95464.31;4397920;32;20229;-60
2022/09/10 08:13:48;;;;;;;0.20;0.20;;;;;;;15.32;95.60;95466.37;4373447;32;20196;-59
2022/09/10 08:16:18;;;;;;;0.20;0.20;;;;;;;15.10;96.24;95473.50;4400885;32;20179;-59
2022/09/10 08:18:46;;;;;;;0.13;0.13;;;;;;;15.24;96.75;95470.62;4397425;32;20195;-59
2022/09/10 08:21:14;;;;;;;0.20;0.20;;;;;;;15.35;96.68;95481.78;4395102;32;20188;-59
2022/09/10 08:23:42;;;;;;;0.20;0.20;;;;;;;15.20;95.53;95482.28;4366943;32;20192;-60
2022/09/10 08:26:10;;;;;;;1.07;0.40;;;;;;;15.29;96.17;95489.19;4383332;32;20199;-60
2022/09/10 08:28:36;;;;;;;0.20;0.20;;;;;;;15.25;96.71;95487.47;4399380;32;20188;-68
2022/09/10 08:31:09;;;;;;;0.20;0.20;;;;;;;15.15;96.94;95479.78;4392594;32;20191;-59
2022/09/10 08:33:40;;;;;;;0.40;0.40;;;;;;;15.25;97.16;95487.47;4406860;32;20179;-59
2022/09/10 08:36:13;;;;;;;0.10;0.10;;;;;;;15.33;97.22;95481.31;4372716;32;20201;-59
2022/09/10 08:38:40;;;;;;;0.00;0.00;;;;;;;15.29;97.11;95483.06;4394301;32;20199;-61
2022/09/10 08:41:31;;;;;;;0.03;0.03;;;;;;;15.48;96.28;95491.47;4389583;32;20192;-59
2022/09/10 08:44:12;;;;;;;0.00;0.00;;;;;;;15.55;96.40;95482.97;4398344;32;20279;-59
2022/09/10 08:46:48;;;;;;;4.80;0.57;;;;;;;15.64;95.82;95487.19;4377243;32;20184;-59
2022/09/10 08:49:41;;;;;;;0.73;0.43;;;;;;;15.75;95.88;95493.78;4361272;32;20188;-59
2022/09/10 08:52:47;;;;;;;0.60;0.37;;;;;;;15.90;95.66;95488.97;4398058;32;20294;-60
2022/09/10 08:55:34;;;;;;;0.20;0.20;;;;;;;15.90;96.23;95497.00;4405290;32;20222;-61
2022/09/10 08:58:15;;;;;;;0.13;0.13;;;;;;;15.81;96.29;95500.50;4370557;32;20207;-59
2022/09/10 09:00:45;;;;;;;0.20;0.20;;;;;;;15.79;96.48;95494.69;4362023;32;20204;-59
2022/09/10 09:03:35;;;;;;;0.53;0.37;;;;;;;15.88;96.82;95501.91;4393562;32;20192;-59
2022/09/10 09:06:05;;;;;;;0.20;0.20;;;;;;;16.14;95.93;95497.19;4407772;32;20263;-59
2022/09/10 09:08:35;;;;;;;0.17;0.17;;;;;;;16.16;95.14;95497.66;4416088;32;20195;-59
2022/09/10 09:11:18;;;;;;;0.03;0.03;;;;;;;16.04;94.94;95500.22;4402360;32;20229;-59
2022/09/10 09:13:59;;;;;;;1.00;0.47;;;;;;;16.13;95.39;95495.63;4412768;32;20192;-60
2022/09/10 09:16:47;;;;;;;0.30;0.30;;;;;;;16.04;96.21;95501.03;4421597;32;20179;-59
2022/09/10 09:19:30;;;;;;;0.53;0.10;;;;;;;16.10;95.93;95497.06;4401745;32;20219;-59
2022/09/10 09:22:15;;;;;;;0.10;0.10;;;;;;;16.17;96.44;95490.41;4418950;32;20305;-59
2022/09/10 09:24:53;;;;;;;0.30;0.30;;;;;;;16.11;96.07;95490.59;4397450;32;20211;-59
2022/09/10 09:27:19;;;;;;;0.37;0.37;;;;;;;16.00;95.18;95484.03;4396100;32;20196;-59
2022/09/10 09:29:50;;;;;;;1.60;0.60;;;;;;;16.02;94.97;95487.19;4405999;32;20196;-59
2022/09/10 09:32:19;;;;;;;0.00;0.00;;;;;;;15.91;95.16;95493.22;4402843;32;20184;-59
2022/09/10 09:34:55;;;;;;;2.73;0.63;;;;;;;15.98;95.51;95493.53;4400091;32;20271;-59
2022/09/10 09:37:30;;;;;;;0.00;0.00;;;;;;;16.11;95.46;95487.13;4406232;32;20183;-60
2022/09/10 09:40:03;;;;;;;0.20;0.20;;;;;;;16.04;95.35;95484.19;4402557;32;20179;-60
2022/09/10 09:42:51;;;;;;;0.27;0.27;;;;;;;16.00;95.38;95481.34;4403108;32;20222;-59
2022/09/10 09:45:37;;;;;;;0.20;0.20;;;;;;;16.02;95.67;95483.72;4407438;32;20181;-59
2022/09/10 09:48:10;;;;;;;0.20;0.20;;;;;;;15.96;95.54;95485.81;4397413;32;20245;-59
2022/09/10 09:50:40;;;;;;;0.10;0.10;;;;;;;15.95;96.00;95488.81;4394712;32;20215;-68
2022/09/10 09:53:08;;;;;;;0.20;0.20;;;;;;;15.94;95.59;95490.69;4408083;32;20196;-62
2022/09/10 09:55:46;;;;;;;4.43;0.40;;;;;;;16.04;95.94;95486.84;4406573;32;20197;-60
2022/09/10 09:58:18;;;;;;;0.20;0.20;;;;;;;15.99;96.53;95490.53;4402407;32;20183;-60
2022/09/10 10:00:43;;;;;;;0.27;0.27;;;;;;;15.90;96.96;95491.66;4397285;32;20196;-59
2022/09/10 10:03:17;;;;;;;0.30;0.30;;;;;;;15.75;98.06;95485.75;4405232;32;20211;-59
2022/09/10 10:05:42;;;;;;;0.03;0.03;;;;;;;15.82;97.90;95480.66;4407307;32;20191;-59
2022/09/10 10:08:44;;;;;;;0.10;0.10;;;;;;;15.87;98.29;95490.41;4410644;32;20226;-59
2022/09/10 10:11:14;;;;;;;0.10;0.10;;;;;;;15.71;98.19;95484.81;4372180;32;20306;-59
2022/09/10 10:13:42;;;;;;;0.10;0.10;;;;;;;15.74;98.07;95494.88;4407652;32;20208;-59
2022/09/10 10:16:25;;;;;;;0.47;0.47;;;;;;;15.37;98.64;95491.06;4394339;32;20234;-59
2022/09/10 10:18:51;;;;;;;0.30;0.30;;;;;;;15.42;99.32;95487.41;4418011;32;20248;-60
2022/09/10 10:21:28;;;;;;;0.37;0.37;;;;;;;15.31;99.84;95480.84;4391630;32;20212;-59
2022/09/10 10:23:53;;;;;;;1.60;0.40;;;;;;;15.30;100.00;95473.94;4405145;32;20188;-59
2022/09/10 10:26:19;;;;;;;0.77;0.60;;;;;;;15.18;100.00;95474.56;4405738;32;20199;-60
2022/09/10 10:28:45;;;;;;;0.07;0.07;;;;;;;15.27;100.00;95471.88;4413688;32;20195;-59
2022/09/10 10:31:11;;;;;;;0.03;0.03;;;;;;;15.38;100.00;95481.16;4400314;32;20184;-59
2022/09/10 10:33:48;;;;;;;0.97;0.60;;;;;;;15.31;100.00;95478.19;4406390;32;20237;-60
2022/09/10 10:36:20;;;;;;;0.10;0.10;;;;;;;15.22;100.00;95474.72;4408791;32;20184;-59
2022/09/10 10:39:00;;;;;;;0.40;0.40;;;;;;;15.14;100.00;95476.34;4407248;32;20250;-59
2022/09/10 10:41:39;;;;;;;1.37;0.60;;;;;;;15.26;100.00;95464.97;4408453;32;20267;-59
2022/09/10 10:44:13;;;;;;;0.70;0.57;;;;;;;15.39;100.00;95464.75;4401978;32;20230;-59
2022/09/10 10:47:16;;;;;;;0.00;0.00;;;;;;;15.56;100.00;95472.00;4399902;32;20183;-59
2022/09/10 10:50:02;;;;;;;0.10;0.10;;;;;;;15.57;100.00;95467.44;4402704;32;20210;-60
2022/09/10 10:53:05;;;;;;;0.33;0.33;;;;;;;15.78;100.00;95461.03;4416237;32;20192;-59
2022/09/10 10:55:51;;;;;;;1.03;0.47;;;;;;;15.82;100.00;95464.63;4399062;32;20198;-59
2022/09/10 10:58:42;;;;;;;0.10;0.10;;;;;;;15.99;100.00;95453.06;4394703;32;20185;-60
2022/09/10 11:01:22;;;;;;;0.57;0.57;;;;;;;16.06;100.00;95447.97;4408912;32;20235;-59
2022/09/10 11:03:59;;;;;;;0.20;0.20;;;;;;;16.12;100.00;95454.69;4411203;32;20253;-60
2022/09/10 11:06:32;;;;;;;0.40;0.40;;;;;;;16.20;100.00;95447.72;4395644;32;20212;-59
2022/09/10 11:09:27;;;;;;;0.40;0.40;;;;;;;16.17;99.67;95453.72;4415380;32;20193;-59
2022/09/10 11:12:12;;;;;;;1.97;0.50;;;;;;;16.23;99.33;95454.31;4399569;32;20251;-60
2022/09/10 11:14:54;;;;;;;0.10;0.10;;;;;;;16.12;100.00;95446.66;4410301;32;20210;-59
2022/09/10 11:17:34;;;;;;;5.80;0.60;;;;;;;16.24;98.99;95448.63;4395702;32;20196;-59
2022/09/10 11:20:17;;;;;;;0.43;0.30;;;;;;;16.34;97.63;95448.25;4419889;32;20226;-59
2022/09/10 11:23:06;;;;;;;0.23;0.23;;;;;;;16.37;97.56;95450.28;4392890;32;20192;-59
2022/09/10 11:25:39;;;;;;;0.63;0.43;;;;;;;16.40;95.57;95451.53;4414504;32;20203;-59
2022/09/10 11:28:18;;;;;;;0.10;0.10;;;;;;;16.37;94.18;95452.16;4421637;32;20187;-59
2022/09/10 11:30:51;;;;;;;0.00;0.00;;;;;;;16.40;91.45;95451.53;4410703;32;20184;-59
2022/09/10 11:33:24;;;;;;;0.00;0.00;;;;;;;16.44;90.17;95457.78;4389609;32;20188;-60
2022/09/10 11:36:01;;;;;;;1.00;0.47;;;;;;;16.40;90.34;95451.53;4421706;32;20198;-59
2022/09/10 11:39:05;;;;;;;0.00;0.00;;;;;;;16.42;90.29;95449.28;4401460;32;20257;-59
2022/09/10 11:41:32;;;;;;;0.20;0.20;;;;;;;16.60;90.72;95447.28;4394153;32;20259;-59
2022/09/10 11:44:30;;;;;;;0.20;0.20;;;;;;;16.62;89.25;95447.72;4401177;32;20188;-59
2022/09/10 11:47:19;;;;;;;0.20;0.20;;;;;;;16.74;88.65;95437.88;4400133;32;20239;-59
2022/09/10 11:49:56;;;;;;;0.00;0.00;;;;;;;16.80;88.79;95441.13;4409240;32;20247;-60
2022/09/10 11:52:24;;;;;;;0.30;0.30;;;;;;;16.83;88.51;95443.16;4401330;32;20198;-59
2022/09/10 11:54:50;;;;;;;1.07;0.37;;;;;;;16.96;87.06;95435.94;4405036;32;20199;-59
2022/09/10 11:57:42;;;;;;;0.07;0.07;;;;;;;16.99;87.92;95440.63;4399172;32;20184;-59
2022/09/10 12:00:11;;;;;;;3.40;0.77;;;;;;;16.94;88.47;95438.94;4395541;32;20231;-60